createdAt,value
2022-11-25T00:07:59.520Z,2.8
2022-11-25T00:10:03.153Z,2.6
2022-11-25T00:12:06.738Z,2.6
2022-11-25T00:14:13.460Z,2.4
2022-11-25T00:16:17.120Z,3.1
2022-11-25T00:18:20.644Z,3
2022-11-25T00:21:27.558Z,2.4
2022-11-25T00:23:33.366Z,2.2
2022-11-25T00:25:34.789Z,3
2022-11-25T00:27:41.479Z,3.9
2022-11-25T00:31:48.713Z,2.6
2022-11-25T00:33:52.267Z,2.9
2022-11-25T00:37:59.470Z,2.9
2022-11-25T00:40:03.111Z,2.1
2022-11-25T00:42:09.782Z,2.5
2022-11-25T00:44:13.369Z,3.2
2022-11-25T00:46:17.027Z,2.5
2022-11-25T00:48:20.552Z,2.8
2022-11-25T00:56:38.066Z,4
2022-11-25T00:58:41.657Z,5.3
2022-11-25T01:02:48.871Z,2.3
2022-11-25T01:04:52.469Z,3.5
2022-11-25T01:06:56.111Z,2.6
2022-11-25T01:08:59.686Z,2.8
2022-11-25T01:11:06.383Z,3.3
2022-11-25T01:13:09.981Z,2.8
2022-11-25T01:15:13.732Z,3
2022-11-25T01:17:43.733Z,3.8
2022-11-25T01:19:47.343Z,3.5
2022-11-25T01:21:50.970Z,3
2022-11-25T01:23:57.624Z,3.6
2022-11-25T01:26:01.222Z,2.4
2022-11-25T01:28:04.860Z,3
2022-11-25T01:30:08.469Z,3
2022-11-25T01:32:12.074Z,3.1
2022-11-25T01:34:15.680Z,3.5
2022-11-25T01:36:19.341Z,3
2022-11-25T01:38:25.977Z,3.6
2022-11-25T01:40:29.603Z,4.4
2022-11-25T01:42:33.189Z,3.2
2022-11-25T01:44:36.930Z,4.2
2022-11-25T01:46:40.420Z,2.9
2022-11-25T01:48:44.016Z,3.1
2022-11-25T01:50:47.652Z,3.8
2022-11-25T01:52:54.352Z,3.5
2022-11-25T01:54:57.938Z,3.1
2022-11-25T01:57:01.611Z,3.2
2022-11-25T01:59:05.182Z,3.1
2022-11-25T02:01:08.869Z,3.6
2022-11-25T02:03:12.432Z,3.4
2022-11-25T02:05:15.995Z,2.5
2022-11-25T02:07:22.748Z,3.5
2022-11-25T02:11:29.904Z,3.9
2022-11-25T02:12:33.251Z,3.5
2022-11-25T02:14:37.061Z,3
2022-11-25T02:16:40.473Z,2.6
2022-11-25T02:18:44.061Z,3.3
2022-11-25T02:20:50.758Z,3.1
2022-11-25T02:22:54.381Z,2.6
2022-11-25T02:24:57.950Z,2.4
2022-11-25T02:27:01.727Z,3.1
2022-11-25T02:29:05.188Z,2.8
2022-11-25T02:33:12.403Z,2.6
2022-11-25T02:35:19.055Z,2.9
2022-11-25T02:37:22.812Z,3
2022-11-25T02:39:26.301Z,2.6
2022-11-25T02:41:29.886Z,3.4
2022-11-25T02:43:33.482Z,2.9
2022-11-25T02:45:37.214Z,2.8
2022-11-25T02:47:40.705Z,2.6
2022-11-25T02:49:47.414Z,2.5
2022-11-25T02:55:58.205Z,3.9
2022-11-25T02:58:01.789Z,2
2022-11-25T03:02:09.104Z,3.2
2022-11-25T03:04:15.734Z,3.8
2022-11-25T03:06:19.359Z,3.3
2022-11-25T03:08:22.940Z,2.6
2022-11-25T03:09:26.276Z,3.4
2022-11-25T03:11:29.928Z,3.4
2022-11-25T03:13:33.508Z,3.3
2022-11-25T03:15:37.149Z,2.4
2022-11-25T03:17:43.801Z,2.9
2022-11-25T03:19:47.401Z,3.2
2022-11-25T03:21:51.013Z,3.3
2022-11-25T03:23:54.633Z,3.3
2022-11-25T03:25:58.220Z,2.7
2022-11-25T03:28:01.873Z,2.8
2022-11-25T03:30:05.470Z,3.7
2022-11-25T03:32:12.160Z,3.4
2022-11-25T03:36:19.336Z,3.3
2022-11-25T03:38:22.957Z,3.1
2022-11-25T03:40:26.565Z,4.1
2022-11-25T03:42:30.171Z,3.7
2022-11-25T03:44:33.903Z,2.8
2022-11-25T03:46:40.461Z,2.9
2022-11-25T03:48:44.035Z,2.9
2022-11-25T03:50:47.659Z,3
2022-11-25T03:52:51.258Z,2.4
2022-11-25T03:54:54.892Z,3
2022-11-25T03:56:58.482Z,2.7
2022-11-25T03:59:02.129Z,2.9
2022-11-25T04:03:12.371Z,4.1
2022-11-25T04:06:19.317Z,4.2
2022-11-25T04:08:23.027Z,3.7
2022-11-25T04:10:26.536Z,3.5
2022-11-25T04:12:30.179Z,3
2022-11-25T04:14:37.137Z,3.4
2022-11-25T04:16:40.559Z,3.1
2022-11-25T04:20:47.716Z,3
2022-11-25T04:22:51.316Z,3.2
2022-11-25T04:26:58.565Z,3.2
2022-11-25T04:29:05.220Z,3.7
2022-11-25T04:31:08.861Z,2.9
2022-11-25T04:33:12.443Z,3.6
2022-11-25T04:35:16.053Z,3.2
2022-11-25T04:37:19.695Z,3.7
2022-11-25T04:39:23.309Z,3
2022-11-25T04:41:26.927Z,2.7
2022-11-25T04:43:33.590Z,2.8
2022-11-25T04:46:06.368Z,3.2
2022-11-25T04:47:40.815Z,2.8
2022-11-25T04:49:44.443Z,2.7
2022-11-25T04:51:48.026Z,2.9
2022-11-25T04:53:51.652Z,2.6
2022-11-25T05:00:05.589Z,2.8
2022-11-25T05:02:09.252Z,2.7
2022-11-25T05:04:39.275Z,2.6
2022-11-25T05:06:42.832Z,2.9
2022-11-25T05:08:46.492Z,2.5
2022-11-25T05:10:53.132Z,3.1
2022-11-25T05:12:56.746Z,2.9
2022-11-25T05:15:00.394Z,2.8
2022-11-25T05:17:04.053Z,3.3
2022-11-25T05:19:07.608Z,3.3
2022-11-25T05:21:11.206Z,2.8
2022-11-25T05:23:14.838Z,3.3
2022-11-25T05:25:23.088Z,2.2
2022-11-25T05:27:26.688Z,3.6
2022-11-25T05:29:30.228Z,2.2
2022-11-25T05:31:33.874Z,2.6
2022-11-25T05:33:37.444Z,1.8
2022-11-25T05:35:41.050Z,2.2
2022-11-25T05:37:44.714Z,2.1
2022-11-25T05:56:23.351Z,1.3
2022-11-25T05:58:26.977Z,1.3
2022-11-25T05:59:30.303Z,1.8
2022-11-25T06:03:37.663Z,2
2022-11-25T06:05:41.205Z,1.8
2022-11-25T06:07:47.958Z,1.6
2022-11-25T06:09:51.482Z,2.2
2022-11-25T06:11:55.048Z,2.7
2022-11-25T06:13:58.699Z,1.7
2022-11-25T06:16:07.571Z,2
2022-11-25T06:18:05.861Z,1.2
2022-11-25T06:20:09.497Z,1.7
2022-11-25T06:22:16.168Z,2.2
2022-11-25T06:24:19.777Z,1.5
2022-11-25T06:26:23.404Z,1.7
2022-11-25T06:28:26.989Z,2.3
2022-11-25T06:30:30.639Z,1.8
2022-11-25T06:34:38.273Z,2.3
2022-11-25T06:36:44.531Z,2.8
2022-11-25T06:38:48.153Z,2.4
2022-11-25T06:40:54.055Z,2.1
2022-11-25T06:42:55.392Z,2.3
2022-11-25T06:44:59.036Z,2.3
2022-11-25T06:47:02.656Z,2.5
2022-11-25T06:51:12.917Z,3
2022-11-25T06:53:21.231Z,2.4
2022-11-25T06:55:20.149Z,2.8
2022-11-25T06:56:23.503Z,3.3
2022-11-25T06:58:35.979Z,2.6
2022-11-25T07:00:30.690Z,2.7
2022-11-25T07:02:40.747Z,3.6
2022-11-25T07:04:41.009Z,3.8
2022-11-25T07:08:48.244Z,2.8
2022-11-25T07:10:51.870Z,3.3
2022-11-25T07:12:55.473Z,3.2
2022-11-25T07:14:59.073Z,2.8
2022-11-25T07:17:04.233Z,2.7
2022-11-25T07:19:09.336Z,3.4
2022-11-25T07:23:16.576Z,3
2022-11-25T07:29:54.141Z,3.2
2022-11-25T07:31:33.020Z,3.3
2022-11-25T07:33:37.859Z,3.3
2022-11-25T07:35:41.345Z,3.2
2022-11-25T07:37:44.958Z,3.6
2022-11-25T07:39:48.576Z,3.5
2022-11-25T07:41:52.164Z,3.6
2022-11-25T07:48:06.067Z,3.7
2022-11-25T07:50:09.681Z,3.9
2022-11-25T07:52:13.311Z,4.3
2022-11-25T07:53:16.639Z,3.9
2022-11-25T07:55:20.258Z,3.9
2022-11-25T08:03:37.800Z,3.7
2022-11-25T08:05:41.401Z,3.2
2022-11-25T08:09:48.610Z,3.9
2022-11-25T08:11:52.218Z,3.5
2022-11-25T08:13:55.835Z,3
2022-11-25T08:16:02.670Z,3.2
2022-11-25T08:18:06.125Z,3.1
2022-11-25T08:20:09.782Z,3.2
2022-11-25T08:22:13.364Z,2.8
2022-11-25T08:24:16.971Z,3.5
2022-11-25T08:26:20.616Z,4.6
2022-11-25T08:28:24.217Z,3.4
2022-11-25T08:30:30.917Z,2.8
2022-11-25T08:32:34.538Z,3.3
2022-11-25T08:34:38.133Z,2.9
2022-11-25T08:38:45.351Z,3
2022-11-25T08:44:59.249Z,3.3
2022-11-25T08:49:06.520Z,2.7
2022-11-25T08:51:30.764Z,2.2
2022-11-25T08:57:44.729Z,2
2022-11-25T08:59:48.301Z,1.6
2022-11-25T09:01:51.974Z,1.7
2022-11-25T09:03:55.523Z,2
2022-11-25T09:08:02.763Z,1.7
2022-11-25T09:10:06.311Z,1.6
2022-11-25T09:12:12.933Z,2
2022-11-25T09:14:16.534Z,1.6
2022-11-25T09:16:20.162Z,1.8
2022-11-25T09:18:23.672Z,1.5
2022-11-25T09:20:27.265Z,1
2022-11-25T09:22:30.828Z,2.2
2022-11-25T09:24:34.399Z,1.8
2022-11-25T09:26:41.973Z,1.5
2022-11-25T09:28:44.656Z,2
2022-11-25T09:32:51.789Z,1.2
2022-11-25T09:43:12.651Z,2.3
2022-11-25T09:46:19.637Z,1.9
2022-11-25T09:48:23.088Z,1.6
2022-11-25T09:50:26.633Z,3.3
2022-11-25T09:52:30.171Z,1.2
2022-11-25T09:54:36.847Z,1.3
2022-11-25T09:56:40.409Z,1.5
2022-11-25T09:58:43.960Z,1.5
2022-11-25T10:00:47.505Z,1.9
2022-11-25T10:02:51.259Z,2.3
2022-11-25T10:04:54.566Z,1.6
2022-11-25T10:06:58.193Z,1.6
2022-11-25T10:09:04.833Z,1.6
2022-11-25T10:13:11.845Z,1.3
2022-11-25T10:19:22.441Z,3.3
2022-11-25T10:21:25.966Z,2.2
2022-11-25T10:23:32.535Z,1.6
2022-11-25T10:25:36.102Z,1.6
2022-11-25T10:27:39.611Z,2
2022-11-25T10:29:43.980Z,1.9
2022-11-25T10:33:50.171Z,2.1
2022-11-25T10:35:53.700Z,2.5
2022-11-25T10:38:00.289Z,2.5
2022-11-25T10:40:03.813Z,2.3
2022-11-25T10:42:07.305Z,2.1
2022-11-25T10:43:10.592Z,1.8
2022-11-25T10:45:14.132Z,2.3
2022-11-25T10:47:17.705Z,1.8
2022-11-25T10:49:21.123Z,1.2
2022-11-25T10:51:27.702Z,1.5
2022-11-25T10:53:31.203Z,1.9
2022-11-25T10:55:34.674Z,1.4
2022-11-25T10:57:38.199Z,1.8
2022-11-25T10:59:41.680Z,1.6
2022-11-25T11:01:45.272Z,2.7
2022-11-25T11:03:48.668Z,2
2022-11-25T11:05:55.242Z,2.3
2022-11-25T11:07:58.779Z,2.7
2022-11-25T11:12:05.606Z,2.7
2022-11-25T11:14:09.090Z,2.3
2022-11-25T11:16:12.625Z,2.6
2022-11-25T11:18:16.013Z,2.8
2022-11-25T11:20:24.166Z,1.9
2022-11-25T11:22:27.584Z,2
2022-11-25T11:24:31.060Z,1.8
2022-11-25T11:26:34.495Z,1.4
2022-11-25T11:28:37.962Z,1.9
2022-11-25T11:30:41.430Z,2.5
2022-11-25T11:32:44.878Z,2.3
2022-11-25T11:34:51.475Z,3
2022-11-25T11:36:54.898Z,2.8
2022-11-25T11:38:58.380Z,2.7
2022-11-25T11:40:01.821Z,2.4
2022-11-25T11:48:18.675Z,2.9
2022-11-25T11:52:25.616Z,2.3
2022-11-25T11:58:36.054Z,2.8
2022-11-25T12:00:39.571Z,2.5
2022-11-25T12:02:46.169Z,3.2
2022-11-25T12:08:56.664Z,3.4
2022-11-25T12:15:07.216Z,2.6
2022-11-25T12:19:17.451Z,2.3
2022-11-25T12:21:20.883Z,2.6
2022-11-25T12:23:24.406Z,2.7
2022-11-25T12:25:27.919Z,3.8
2022-11-25T12:27:31.457Z,3
2022-11-25T12:29:34.986Z,3.8
2022-11-25T12:31:41.668Z,3.3
2022-11-25T12:33:45.128Z,3.4
2022-11-25T12:35:48.667Z,2.9
2022-11-25T12:38:07.086Z,3
2022-11-25T12:40:10.686Z,3
2022-11-25T12:44:20.696Z,3.4
2022-11-25T12:46:24.286Z,2.7
2022-11-25T12:48:27.747Z,3
2022-11-25T12:50:31.297Z,2.5
2022-11-25T12:54:38.654Z,3
2022-11-25T12:56:41.832Z,2.8
2022-11-25T12:58:48.494Z,2.7
2022-11-25T13:00:52.031Z,3.2
2022-11-25T13:02:55.730Z,2.9
2022-11-25T13:05:18.426Z,4.5
2022-11-25T13:07:02.631Z,2.6
2022-11-25T13:09:06.180Z,3.1
2022-11-25T13:11:10.147Z,3.4
2022-11-25T13:13:18.207Z,3.5
2022-11-25T13:15:20.093Z,2.3
2022-11-25T13:17:23.924Z,2.7
2022-11-25T13:19:26.983Z,3.1
2022-11-25T13:25:37.597Z,2.8
2022-11-25T13:31:54.664Z,4.1
2022-11-25T13:32:54.618Z,3.7
2022-11-25T13:34:58.162Z,3.8
2022-11-25T13:37:01.712Z,3
2022-11-25T13:39:05.262Z,3.8
2022-11-25T13:41:16.594Z,4.5
2022-11-25T13:43:21.440Z,2.9
2022-11-25T13:45:38.396Z,2.6
2022-11-25T13:47:22.610Z,3.5
2022-11-25T13:49:26.151Z,2.7
2022-11-25T13:51:29.721Z,2.9
2022-11-25T13:53:33.269Z,3
2022-11-25T13:55:39.891Z,3.8
2022-11-25T13:57:43.418Z,2.7
2022-11-25T13:59:47.003Z,4.3
2022-11-25T14:01:50.580Z,3.1
2022-11-25T14:05:57.673Z,3
2022-11-25T14:08:01.319Z,3.1
2022-11-25T14:10:07.869Z,2.6
2022-11-25T14:12:11.380Z,2.7
2022-11-25T14:14:14.947Z,2.4
2022-11-25T14:16:18.598Z,2.5
2022-11-25T14:18:44.404Z,2.3
2022-11-25T14:20:25.611Z,2.1
2022-11-25T14:22:29.164Z,2.4
2022-11-25T14:24:35.790Z,3.1
2022-11-25T14:26:49.644Z,1.9
2022-11-25T14:28:42.915Z,2.4
2022-11-25T14:29:46.203Z,2.6
2022-11-25T14:31:49.865Z,2.4
2022-11-25T14:35:56.871Z,3
2022-11-25T14:38:03.553Z,4.8
2022-11-25T14:40:07.123Z,2.6
2022-11-25T14:42:10.647Z,2.5
2022-11-25T14:44:14.225Z,4.1
2022-11-25T14:46:17.831Z,3.5
2022-11-25T14:48:21.353Z,3.1
2022-11-25T14:50:35.060Z,2.6
2022-11-25T14:52:31.569Z,2.4
2022-11-25T14:54:35.530Z,2.5
2022-11-25T15:00:45.836Z,3.1
2022-11-25T15:06:59.616Z,3.3
2022-11-25T15:11:06.711Z,2.5
2022-11-25T15:13:10.323Z,3.3
2022-11-25T15:15:13.856Z,2.8
2022-11-25T15:17:17.472Z,3.1
2022-11-25T15:21:27.664Z,2.3
2022-11-25T15:26:38.143Z,4
2022-11-25T15:28:41.742Z,2.7
2022-11-25T15:30:45.292Z,2.7
2022-11-25T15:32:48.873Z,3
2022-11-25T15:34:55.533Z,2.1
2022-11-25T15:36:59.125Z,3.1
2022-11-25T15:39:02.687Z,3.5
2022-11-25T15:41:06.268Z,2.5
2022-11-25T15:43:09.834Z,3.5
2022-11-25T15:45:13.431Z,2.3
2022-11-25T15:47:17.000Z,2.8
2022-11-25T15:49:23.666Z,4.8
2022-11-25T15:51:27.269Z,3.2
2022-11-25T15:53:33.467Z,4.2
2022-11-25T15:55:34.421Z,6.2
2022-11-25T15:57:37.994Z,6.5
2022-11-25T15:59:41.600Z,4.9
2022-11-25T16:01:45.227Z,4.7
2022-11-25T16:03:51.845Z,5.6
2022-11-25T16:05:55.453Z,5
2022-11-25T16:07:59.033Z,6
2022-11-25T16:10:02.607Z,4.2
2022-11-25T16:12:06.197Z,5
2022-11-25T16:18:39.160Z,6.8
2022-11-25T16:20:23.634Z,5.2
2022-11-25T16:22:27.224Z,4.5
2022-11-25T16:24:52.400Z,8.5
2022-11-25T16:28:58.723Z,6.9
2022-11-25T16:33:08.975Z,5.7
2022-11-25T16:35:12.542Z,7
2022-11-25T16:37:16.160Z,5
2022-11-25T16:39:19.769Z,6.8
2022-11-25T16:41:23.342Z,5.7
2022-11-25T16:43:26.951Z,5.3
2022-11-25T16:45:33.666Z,6.1
2022-11-25T16:47:37.218Z,5.4
2022-11-25T16:49:40.804Z,7.1
2022-11-25T16:51:44.380Z,5
2022-11-25T16:53:47.984Z,5.5
2022-11-25T16:55:51.570Z,5.7
2022-11-25T16:57:55.153Z,5.7
2022-11-25T17:00:01.878Z,5.5
2022-11-25T17:02:05.657Z,5.8
2022-11-25T17:04:09.058Z,7
2022-11-25T17:06:17.091Z,5
2022-11-25T17:08:16.273Z,5.4
2022-11-25T17:10:19.937Z,6.2
2022-11-25T17:12:23.433Z,5.8
2022-11-25T17:19:42.191Z,6.1
2022-11-25T17:25:52.992Z,5.3
2022-11-25T17:32:06.934Z,6.3
2022-11-25T17:38:17.696Z,6.6
2022-11-25T17:42:27.984Z,7.7
2022-11-25T17:44:31.557Z,8.4
2022-11-25T17:46:35.197Z,8.5
2022-11-25T17:48:38.777Z,8.9
2022-11-25T17:50:42.382Z,10.7
2022-11-25T17:52:46.017Z,10.1
2022-11-25T17:54:49.587Z,8.5
2022-11-25T17:56:56.299Z,8.9
2022-11-25T17:58:59.901Z,9.2
2022-11-25T18:01:03.782Z,9.1
2022-11-25T18:03:07.182Z,8.7
2022-11-25T18:05:10.724Z,9.1
2022-11-25T18:07:14.443Z,9.5
2022-11-25T18:09:17.959Z,9.3
2022-11-25T18:11:24.641Z,10.9
2022-11-25T18:13:29.447Z,8.5
2022-11-25T18:18:43.175Z,11.6
2022-11-25T18:20:42.445Z,10.7
2022-11-25T18:22:46.948Z,12
2022-11-25T18:24:52.762Z,11.5
2022-11-25T18:27:18.537Z,12.4
2022-11-25T18:28:59.995Z,10.8
2022-11-25T18:31:03.725Z,11
2022-11-25T18:33:07.224Z,10.1
2022-11-25T18:37:14.459Z,11.2
2022-11-25T18:39:21.200Z,10.8
2022-11-25T18:43:28.412Z,17.4
2022-11-25T18:45:32.094Z,16.9
2022-11-25T18:49:39.305Z,11.9
2022-11-25T18:51:42.951Z,13.1
2022-11-25T18:53:49.848Z,12.6
2022-11-25T18:55:53.275Z,13.6
2022-11-25T18:57:56.898Z,14.2
2022-11-25T19:00:24.863Z,14.1
2022-11-25T19:02:04.346Z,12.6
2022-11-25T19:04:07.780Z,14.5
2022-11-25T19:08:18.090Z,18.6
2022-11-25T19:10:21.675Z,17.1
2022-11-25T19:12:26.617Z,14.7
2022-11-25T19:13:28.662Z,16.8
2022-11-25T19:15:32.295Z,16.9
2022-11-25T19:17:35.906Z,17.8
2022-11-25T19:19:39.565Z,19
2022-11-25T19:21:46.228Z,17.7
2022-11-25T19:23:49.875Z,20.3
2022-11-25T19:25:53.476Z,21.9
2022-11-25T19:27:57.090Z,32.1
2022-11-25T19:30:00.743Z,21
2022-11-25T19:32:18.679Z,25.4
2022-11-25T19:34:07.964Z,25
2022-11-25T19:38:18.280Z,25.1
2022-11-25T19:40:36.131Z,19.5
2022-11-25T19:42:25.483Z,18.9
2022-11-25T19:44:29.159Z,19.7
2022-11-25T19:46:46.315Z,20.5
2022-11-25T19:48:36.393Z,18.7
2022-11-25T19:50:43.098Z,17.4
2022-11-25T19:52:46.737Z,16.5
2022-11-25T19:54:50.377Z,15.4
2022-11-25T19:56:53.986Z,14.5
2022-11-25T19:58:57.628Z,16.2
2022-11-25T20:01:01.408Z,14.7
2022-11-25T20:03:04.885Z,15.3
2022-11-25T20:05:11.568Z,16.5
2022-11-25T20:07:15.211Z,14.5
2022-11-25T20:09:18.828Z,14.8
2022-11-25T20:11:37.372Z,14.9
2022-11-25T20:15:44.622Z,17.1
2022-11-25T20:21:58.570Z,14.7
2022-11-25T20:28:09.453Z,20.3
2022-11-25T20:30:13.057Z,17.7
2022-11-25T20:32:19.846Z,27.2
2022-11-25T20:34:23.373Z,19.8
2022-11-25T20:36:27.031Z,20
2022-11-25T20:38:30.664Z,18.6
2022-11-25T20:40:34.270Z,18.3
2022-11-25T20:42:37.887Z,19.1
2022-11-25T20:44:41.540Z,19.8
2022-11-25T20:46:48.247Z,24.3
2022-11-25T20:48:51.926Z,31.6
2022-11-25T20:50:55.480Z,30.6
2022-11-25T20:52:59.138Z,26.2
2022-11-25T20:57:06.388Z,24.7
2022-11-25T20:59:10.072Z,24.9
2022-11-25T21:01:16.802Z,27
2022-11-25T21:03:20.300Z,23.5
2022-11-25T21:05:23.939Z,22.3
2022-11-25T21:06:27.278Z,24.1
2022-11-25T21:08:30.924Z,23.8
2022-11-25T21:10:34.531Z,24
2022-11-25T21:12:38.182Z,25
2022-11-25T21:14:44.887Z,24.5
2022-11-25T21:16:48.593Z,29
2022-11-25T21:18:52.156Z,31.1
2022-11-25T21:20:55.785Z,27.1
2022-11-25T21:22:59.415Z,26.7
2022-11-25T21:25:03.114Z,25.9
2022-11-25T21:27:11.242Z,26.4
2022-11-25T21:29:13.376Z,24.7
2022-11-25T21:33:20.645Z,26
2022-11-25T21:35:24.262Z,24.9
2022-11-25T21:37:27.997Z,26.3
2022-11-25T21:39:31.562Z,25.6
2022-11-25T21:41:35.223Z,24.7
2022-11-25T21:43:41.911Z,24.6
2022-11-25T21:45:45.568Z,26.8
2022-11-25T21:47:49.160Z,24.8
2022-11-25T21:49:52.819Z,23.8
2022-11-25T21:51:56.497Z,22.8
2022-11-25T21:54:00.147Z,23.7
2022-11-25T21:56:03.767Z,21.8
2022-11-25T21:58:10.435Z,22.2
2022-11-25T22:00:14.110Z,21.1
2022-11-25T22:02:17.753Z,19.4
2022-11-25T22:03:21.236Z,19.4
2022-11-25T22:05:28.733Z,20
2022-11-25T22:07:30.915Z,19.1
2022-11-25T22:09:32.015Z,18.5
2022-11-25T22:13:42.386Z,18
2022-11-25T22:15:46.040Z,17.6
2022-11-25T22:17:49.681Z,18
2022-11-25T22:19:53.362Z,19.4
2022-11-25T22:22:00.285Z,19.2
2022-11-25T22:24:00.610Z,18.9
2022-11-25T22:26:07.325Z,18.3
2022-11-25T22:28:10.922Z,18
2022-11-25T22:30:14.585Z,18.3
2022-11-25T22:32:18.209Z,19.5
2022-11-25T22:34:21.824Z,20.1
2022-11-25T22:36:25.507Z,19.2
2022-11-25T22:38:29.151Z,19.1
2022-11-25T22:40:35.833Z,19.7
2022-11-25T22:42:39.455Z,17.8
2022-11-25T22:44:43.090Z,18.4
2022-11-25T22:46:46.733Z,17.7
2022-11-25T22:50:54.013Z,18.1
2022-11-25T22:52:57.631Z,18.8
2022-11-25T22:55:04.357Z,18.3
2022-11-25T22:57:07.983Z,17.5
2022-11-25T22:59:11.650Z,16.7
2022-11-25T23:00:14.969Z,16.3
2022-11-25T23:04:22.248Z,17.7
2022-11-25T23:06:25.913Z,17.5
2022-11-25T23:08:32.584Z,17.5
2022-11-25T23:10:36.232Z,17.6
2022-11-25T23:12:39.882Z,18.1
2022-11-25T23:14:45.081Z,18.1
2022-11-25T23:16:48.752Z,16.6
2022-11-25T23:18:52.308Z,17.1
2022-11-25T23:20:55.951Z,16.2
2022-11-25T23:23:02.664Z,17.6
2022-11-25T23:25:06.314Z,16.5
2022-11-25T23:27:09.943Z,17.4
2022-11-25T23:29:13.623Z,16.4
2022-11-25T23:31:17.426Z,16.6
2022-11-25T23:33:20.928Z,16.8
2022-11-25T23:35:24.584Z,17.4
2022-11-25T23:37:31.244Z,18.4
2022-11-25T23:39:34.925Z,17.4
2022-11-25T23:41:38.564Z,17.7
2022-11-25T23:43:42.249Z,18.7
2022-11-25T23:45:45.975Z,16.6
2022-11-25T23:47:49.541Z,16.3
2022-11-25T23:49:53.132Z,15.6
2022-11-25T23:52:04.662Z,18.4
2022-11-25T23:54:03.504Z,17.1
2022-11-25T23:56:07.170Z,17.3
